Terminal Aerodrome Forecast
Issued by NWS

Home | Current Version | Previous Version | Text Only | Print | Product List | Glossary On
Versions: 1 2 3 4 5 6 7 8 9 10 11 12 13 14 15
000
FTUS44 KOUN 010525
TAFLAW
TAF
KLAW 010525Z 0106/0206 36008KT P6SM SCT200
     FM011400 01015G22KT P6SM SCT040 BKN200
     FM020000 36010KT P6SM BKN040 PROB30 0202/0206 4SM -RA BR
      OVC025=

USA.gov is the U.S. government's official web portal to all federal, state and local government web resources and services.